This is the latest recevied weather packets stored in our database for station/object T10BNorth. If no packets are shown the sender has not sent any weather packets the latest 1 day(s).
| Time | Temp. | Humidity | Pressure | Rain* | Wind** | Luminosity | Snow |
|---|---|---|---|---|---|---|---|
| 1778018441 | 14.44° C | 88% | 1005.4 hPa | 1.78 mm | - | 26 W/m² | - |
| 1778018197 | 14.44° C | 86% | 1005.7 hPa | 1.27 mm | - | 14 W/m² | - |
| 1778018078 | 15° C | 86% | 1005.7 hPa | 1.27 mm | - | 9 W/m² | - |
| 1778016802 | 16.11° C | 82% | 1005.1 hPa | 0 mm | - | 18 W/m² | - |
| 1778016622 | 16.11° C | 81% | 1004.7 hPa | 0 mm | - | 16 W/m² | - |
| 1778016501 | 16.11° C | 80% | 1004.9 hPa | 0 mm | - | 19 W/m² | - |
| 1778016199 | 17.22° C | 79% | 1004.5 hPa | 0 mm | - | 33 W/m² | - |
| 1778016137 | 17.22° C | 79% | 1004.7 hPa | 0 mm | - | 39 W/m² | - |
| 1778015894 | 18.33° C | 75% | 1004.5 hPa | 0 mm | - | 53 W/m² | - |
| 1778015534 | 21.11° C | 62% | 1003.7 hPa | 0 mm | - | 51 W/m² | - |
| 1778015426 | 21.67° C | 58% | 1003.3 hPa | 0 mm | - | 33 W/m² | - |
| 1778015233 | 22.78° C | 49% | 1003.6 hPa | 0 mm | - | 18 W/m² | - |
| 1778015054 | 22.78° C | 46% | 1002.2 hPa | 0 mm | - | 21 W/m² | - |
| 1778014935 | 22.78° C | 46% | 1002 hPa | 0 mm | - | 19 W/m² | - |
| 1778014874 | 23.33° C | 46% | 1002 hPa | 0 mm | - | 18 W/m² | - |
| 1778014755 | 23.33° C | 45% | 1002 hPa | 0 mm | - | 18 W/m² | - |
| 1778014693 | 23.33° C | 45% | 1001.9 hPa | 0 mm | - | 19 W/m² | - |
| 1778014574 | 23.33° C | 46% | 1001.8 hPa | 0 mm | - | 25 W/m² | - |
| 1778014198 | 23.33° C | 45% | 1001.8 hPa | 0 mm | - | 37 W/m² | - |
| 1778013971 | 23.33° C | 45% | 1001.7 hPa | 0 mm | - | 51 W/m² | - |
| 1778013898 | 23.33° C | 44% | 1001.7 hPa | 0 mm | - | 56 W/m² | - |
| 1778013787 | 23.33° C | 44% | 1001.7 hPa | 0 mm | - | 58 W/m² | - |
| 1778013546 | 23.33° C | 44% | 1001.8 hPa | 0 mm | - | 56 W/m² | - |
| 1778013367 | 23.89° C | 44% | 1001.8 hPa | 0 mm | - | 83 W/m² | - |
| 1778013245 | 23.89° C | 44% | 1001.8 hPa | 0 mm | - | 90 W/m² | - |
* Rain latest hour (hover to see other rain measurements)
** Current wind speed in m/s (hover to see current wind gust speed)